sensor_id;sensor_type;location;lat;lon;timestamp;P1;durP1;ratioP1;P2;durP2;ratioP2
13590;SDS011;6866;50.778;7.206;2023-07-16T00:00:25;7.63;;;1.50;;
13590;SDS011;6866;50.778;7.206;2023-07-16T00:02:51;5.35;;;1.40;;
13590;SDS011;6866;50.778;7.206;2023-07-16T00:05:16;4.55;;;1.60;;
13590;SDS011;6866;50.778;7.206;2023-07-16T00:07:42;4.35;;;1.50;;
13590;SDS011;6866;50.778;7.206;2023-07-16T00:10:07;4.05;;;1.40;;
13590;SDS011;6866;50.778;7.206;2023-07-16T00:12:33;4.05;;;1.55;;
13590;SDS011;6866;50.778;7.206;2023-07-16T00:14:58;5.25;;;1.60;;
13590;SDS011;6866;50.778;7.206;2023-07-16T00:17:24;5.18;;;1.58;;
13590;SDS011;6866;50.778;7.206;2023-07-16T00:19:50;5.10;;;1.90;;
13590;SDS011;6866;50.778;7.206;2023-07-16T00:22:15;5.55;;;1.50;;
13590;SDS011;6866;50.778;7.206;2023-07-16T00:24:41;6.18;;;1.80;;
13590;SDS011;6866;50.778;7.206;2023-07-16T00:27:06;5.20;;;1.58;;
13590;SDS011;6866;50.778;7.206;2023-07-16T00:29:32;6.63;;;1.90;;
13590;SDS011;6866;50.778;7.206;2023-07-16T00:31:57;5.20;;;1.70;;
13590;SDS011;6866;50.778;7.206;2023-07-16T00:34:23;3.90;;;1.50;;
13590;SDS011;6866;50.778;7.206;2023-07-16T00:36:48;4.38;;;1.48;;
13590;SDS011;6866;50.778;7.206;2023-07-16T00:39:14;8.43;;;1.70;;
13590;SDS011;6866;50.778;7.206;2023-07-16T00:41:39;3.47;;;1.60;;
13590;SDS011;6866;50.778;7.206;2023-07-16T00:44:05;4.68;;;1.63;;
13590;SDS011;6866;50.778;7.206;2023-07-16T00:46:30;4.38;;;1.80;;
13590;SDS011;6866;50.778;7.206;2023-07-16T00:48:56;4.65;;;1.80;;
13590;SDS011;6866;50.778;7.206;2023-07-16T00:51:22;4.20;;;1.50;;
13590;SDS011;6866;50.778;7.206;2023-07-16T00:53:50;4.05;;;1.45;;
13590;SDS011;6866;50.778;7.206;2023-07-16T00:56:16;3.83;;;1.48;;
13590;SDS011;6866;50.778;7.206;2023-07-16T00:58:45;4.97;;;1.50;;
13590;SDS011;6866;50.778;7.206;2023-07-16T01:03:46;7.40;;;1.70;;
13590;SDS011;6866;50.778;7.206;2023-07-16T01:06:16;5.70;;;1.70;;
13590;SDS011;6866;50.778;7.206;2023-07-16T01:08:49;5.45;;;1.60;;
13590;SDS011;6866;50.778;7.206;2023-07-16T01:11:21;6.40;;;1.70;;
13590;SDS011;6866;50.778;7.206;2023-07-16T01:13:47;6.28;;;1.80;;
13590;SDS011;6866;50.778;7.206;2023-07-16T01:16:19;5.95;;;1.90;;
13590;SDS011;6866;50.778;7.206;2023-07-16T01:18:46;4.40;;;1.58;;
13590;SDS011;6866;50.778;7.206;2023-07-16T01:21:12;5.32;;;1.80;;
13590;SDS011;6866;50.778;7.206;2023-07-16T01:23:50;6.95;;;1.73;;
13590;SDS011;6866;50.778;7.206;2023-07-16T01:31:55;4.25;;;1.67;;
13590;SDS011;6866;50.778;7.206;2023-07-16T01:34:22;6.07;;;1.60;;
13590;SDS011;6866;50.778;7.206;2023-07-16T01:36:49;6.70;;;1.60;;
13590;SDS011;6866;50.778;7.206;2023-07-16T01:39:16;3.40;;;1.42;;
13590;SDS011;6866;50.778;7.206;2023-07-16T01:41:42;3.50;;;1.45;;
13590;SDS011;6866;50.778;7.206;2023-07-16T01:44:07;5.53;;;1.75;;
13590;SDS011;6866;50.778;7.206;2023-07-16T01:46:33;8.13;;;1.75;;
13590;SDS011;6866;50.778;7.206;2023-07-16T01:48:58;5.13;;;1.63;;
13590;SDS011;6866;50.778;7.206;2023-07-16T01:51:24;6.88;;;1.70;;
13590;SDS011;6866;50.778;7.206;2023-07-16T01:53:49;7.03;;;1.70;;
13590;SDS011;6866;50.778;7.206;2023-07-16T01:56:16;4.82;;;1.50;;
13590;SDS011;6866;50.778;7.206;2023-07-16T01:58:42;5.28;;;1.65;;
13590;SDS011;6866;50.778;7.206;2023-07-16T02:01:07;3.53;;;1.58;;
13590;SDS011;6866;50.778;7.206;2023-07-16T02:03:33;5.35;;;1.67;;
13590;SDS011;6866;50.778;7.206;2023-07-16T02:05:58;5.78;;;1.50;;
13590;SDS011;6866;50.778;7.206;2023-07-16T02:08:24;5.95;;;1.58;;
13590;SDS011;6866;50.778;7.206;2023-07-16T02:10:49;6.25;;;1.60;;
13590;SDS011;6866;50.778;7.206;2023-07-16T02:13:15;6.00;;;1.80;;
13590;SDS011;6866;50.778;7.206;2023-07-16T02:15:40;7.78;;;1.63;;
13590;SDS011;6866;50.778;7.206;2023-07-16T02:18:07;7.57;;;1.95;;
13590;SDS011;6866;50.778;7.206;2023-07-16T02:20:33;5.50;;;1.70;;
13590;SDS011;6866;50.778;7.206;2023-07-16T02:22:58;4.05;;;1.50;;
13590;SDS011;6866;50.778;7.206;2023-07-16T02:25:24;7.28;;;1.50;;
13590;SDS011;6866;50.778;7.206;2023-07-16T02:27:50;6.75;;;1.90;;
13590;SDS011;6866;50.778;7.206;2023-07-16T02:30:16;6.00;;;1.63;;
13590;SDS011;6866;50.778;7.206;2023-07-16T02:32:42;5.00;;;1.60;;
13590;SDS011;6866;50.778;7.206;2023-07-16T02:35:08;4.32;;;1.40;;
13590;SDS011;6866;50.778;7.206;2023-07-16T02:37:33;8.75;;;1.73;;
13590;SDS011;6866;50.778;7.206;2023-07-16T02:39:59;6.45;;;1.88;;
13590;SDS011;6866;50.778;7.206;2023-07-16T02:42:24;6.25;;;1.63;;
13590;SDS011;6866;50.778;7.206;2023-07-16T02:44:51;6.70;;;1.85;;
13590;SDS011;6866;50.778;7.206;2023-07-16T02:47:16;3.65;;;1.45;;
13590;SDS011;6866;50.778;7.206;2023-07-16T02:49:42;6.50;;;1.48;;
13590;SDS011;6866;50.778;7.206;2023-07-16T02:52:07;7.93;;;1.70;;
13590;SDS011;6866;50.778;7.206;2023-07-16T02:54:34;6.07;;;1.80;;
13590;SDS011;6866;50.778;7.206;2023-07-16T02:57:01;5.93;;;1.55;;
13590;SDS011;6866;50.778;7.206;2023-07-16T02:59:26;6.50;;;1.73;;
13590;SDS011;6866;50.778;7.206;2023-07-16T03:01:52;8.15;;;1.60;;
13590;SDS011;6866;50.778;7.206;2023-07-16T03:04:18;5.90;;;1.80;;
13590;SDS011;6866;50.778;7.206;2023-07-16T03:06:44;5.75;;;1.55;;
13590;SDS011;6866;50.778;7.206;2023-07-16T03:09:10;7.03;;;1.65;;
13590;SDS011;6866;50.778;7.206;2023-07-16T03:11:36;6.55;;;1.70;;
13590;SDS011;6866;50.778;7.206;2023-07-16T03:14:01;8.20;;;1.90;;
13590;SDS011;6866;50.778;7.206;2023-07-16T03:16:27;6.22;;;1.95;;
13590;SDS011;6866;50.778;7.206;2023-07-16T03:18:53;7.82;;;1.73;;
13590;SDS011;6866;50.778;7.206;2023-07-16T03:21:19;7.32;;;1.80;;
13590;SDS011;6866;50.778;7.206;2023-07-16T03:23:44;7.88;;;1.65;;
13590;SDS011;6866;50.778;7.206;2023-07-16T03:26:10;7.95;;;1.52;;
13590;SDS011;6866;50.778;7.206;2023-07-16T03:28:35;5.85;;;1.67;;
13590;SDS011;6866;50.778;7.206;2023-07-16T03:31:01;6.95;;;1.90;;
13590;SDS011;6866;50.778;7.206;2023-07-16T03:33:27;5.25;;;2.00;;
13590;SDS011;6866;50.778;7.206;2023-07-16T03:35:52;5.50;;;1.83;;
13590;SDS011;6866;50.778;7.206;2023-07-16T03:38:18;6.72;;;2.22;;
13590;SDS011;6866;50.778;7.206;2023-07-16T03:40:45;8.82;;;1.98;;
13590;SDS011;6866;50.778;7.206;2023-07-16T03:43:12;6.25;;;1.85;;
13590;SDS011;6866;50.778;7.206;2023-07-16T03:45:38;6.18;;;1.60;;
13590;SDS011;6866;50.778;7.206;2023-07-16T03:48:04;6.55;;;1.85;;
13590;SDS011;6866;50.778;7.206;2023-07-16T03:50:30;8.85;;;1.90;;
13590;SDS011;6866;50.778;7.206;2023-07-16T03:52:55;5.85;;;1.80;;
13590;SDS011;6866;50.778;7.206;2023-07-16T03:55:21;6.10;;;2.03;;
13590;SDS011;6866;50.778;7.206;2023-07-16T03:57:46;8.45;;;2.05;;
13590;SDS011;6866;50.778;7.206;2023-07-16T04:00:12;7.55;;;1.90;;
13590;SDS011;6866;50.778;7.206;2023-07-16T04:02:38;9.27;;;1.92;;
13590;SDS011;6866;50.778;7.206;2023-07-16T04:05:03;7.65;;;1.83;;
13590;SDS011;6866;50.778;7.206;2023-07-16T04:07:29;14.20;;;2.10;;
13590;SDS011;6866;50.778;7.206;2023-07-16T04:09:55;8.82;;;1.92;;
13590;SDS011;6866;50.778;7.206;2023-07-16T04:12:20;7.78;;;2.13;;
13590;SDS011;6866;50.778;7.206;2023-07-16T04:14:46;7.47;;;1.80;;
13590;SDS011;6866;50.778;7.206;2023-07-16T04:17:12;6.88;;;1.83;;
13590;SDS011;6866;50.778;7.206;2023-07-16T04:19:38;10.48;;;2.05;;
13590;SDS011;6866;50.778;7.206;2023-07-16T04:22:03;7.53;;;1.83;;
13590;SDS011;6866;50.778;7.206;2023-07-16T04:24:29;9.93;;;1.92;;
13590;SDS011;6866;50.778;7.206;2023-07-16T04:26:55;11.07;;;2.10;;
13590;SDS011;6866;50.778;7.206;2023-07-16T04:29:21;8.55;;;2.00;;
13590;SDS011;6866;50.778;7.206;2023-07-16T04:31:46;9.52;;;2.03;;
13590;SDS011;6866;50.778;7.206;2023-07-16T04:34:12;7.28;;;2.20;;
13590;SDS011;6866;50.778;7.206;2023-07-16T04:36:38;6.55;;;2.13;;
13590;SDS011;6866;50.778;7.206;2023-07-16T04:39:03;5.95;;;1.90;;
13590;SDS011;6866;50.778;7.206;2023-07-16T04:41:29;6.28;;;2.13;;
13590;SDS011;6866;50.778;7.206;2023-07-16T04:43:55;9.30;;;2.22;;
13590;SDS011;6866;50.778;7.206;2023-07-16T04:46:21;7.30;;;2.08;;
13590;SDS011;6866;50.778;7.206;2023-07-16T04:48:47;7.32;;;1.95;;
13590;SDS011;6866;50.778;7.206;2023-07-16T04:51:12;5.70;;;1.88;;
13590;SDS011;6866;50.778;7.206;2023-07-16T04:53:38;8.35;;;2.15;;
13590;SDS011;6866;50.778;7.206;2023-07-16T04:56:04;6.80;;;2.10;;
13590;SDS011;6866;50.778;7.206;2023-07-16T04:58:35;9.25;;;2.25;;
13590;SDS011;6866;50.778;7.206;2023-07-16T05:01:00;7.15;;;2.00;;
13590;SDS011;6866;50.778;7.206;2023-07-16T05:03:26;5.93;;;1.83;;
13590;SDS011;6866;50.778;7.206;2023-07-16T05:05:51;7.35;;;2.30;;
13590;SDS011;6866;50.778;7.206;2023-07-16T05:08:17;6.57;;;2.00;;
13590;SDS011;6866;50.778;7.206;2023-07-16T05:10:42;9.13;;;2.20;;
13590;SDS011;6866;50.778;7.206;2023-07-16T05:13:08;7.68;;;2.20;;
13590;SDS011;6866;50.778;7.206;2023-07-16T05:15:33;7.75;;;2.20;;
13590;SDS011;6866;50.778;7.206;2023-07-16T05:17:59;5.85;;;2.00;;
13590;SDS011;6866;50.778;7.206;2023-07-16T05:20:24;8.70;;;2.22;;
13590;SDS011;6866;50.778;7.206;2023-07-16T05:22:50;8.40;;;2.30;;
13590;SDS011;6866;50.778;7.206;2023-07-16T05:25:16;6.53;;;2.13;;
13590;SDS011;6866;50.778;7.206;2023-07-16T05:27:41;8.75;;;2.42;;
13590;SDS011;6866;50.778;7.206;2023-07-16T05:30:07;9.70;;;2.40;;
13590;SDS011;6866;50.778;7.206;2023-07-16T05:32:33;18.23;;;2.75;;
13590;SDS011;6866;50.778;7.206;2023-07-16T05:34:58;7.72;;;2.55;;
13590;SDS011;6866;50.778;7.206;2023-07-16T05:37:25;7.15;;;2.20;;
13590;SDS011;6866;50.778;7.206;2023-07-16T05:39:51;7.45;;;2.50;;
13590;SDS011;6866;50.778;7.206;2023-07-16T05:42:17;9.40;;;2.88;;
13590;SDS011;6866;50.778;7.206;2023-07-16T05:44:42;6.57;;;2.30;;
13590;SDS011;6866;50.778;7.206;2023-07-16T05:47:09;7.22;;;2.22;;
13590;SDS011;6866;50.778;7.206;2023-07-16T05:52:00;6.97;;;2.40;;
13590;SDS011;6866;50.778;7.206;2023-07-16T05:54:26;8.70;;;2.58;;
13590;SDS011;6866;50.778;7.206;2023-07-16T05:56:51;8.50;;;2.50;;
13590;SDS011;6866;50.778;7.206;2023-07-16T06:43:02;7.25;;;3.13;;
13590;SDS011;6866;50.778;7.206;2023-07-16T09:11:11;6.78;;;3.30;;
13590;SDS011;6866;50.778;7.206;2023-07-16T09:13:43;6.20;;;3.15;;
13590;SDS011;6866;50.778;7.206;2023-07-16T09:18:34;6.95;;;3.70;;
13590;SDS011;6866;50.778;7.206;2023-07-16T09:21:00;7.00;;;3.50;;
13590;SDS011;6866;50.778;7.206;2023-07-16T09:23:29;7.85;;;3.15;;
13590;SDS011;6866;50.778;7.206;2023-07-16T09:25:55;6.68;;;3.03;;
13590;SDS011;6866;50.778;7.206;2023-07-16T09:28:22;6.18;;;2.83;;
13590;SDS011;6866;50.778;7.206;2023-07-16T09:30:47;6.25;;;2.80;;
13590;SDS011;6866;50.778;7.206;2023-07-16T09:33:15;5.25;;;2.53;;
13590;SDS011;6866;50.778;7.206;2023-07-16T09:35:49;5.90;;;2.80;;
13590;SDS011;6866;50.778;7.206;2023-07-16T09:38:16;5.75;;;2.72;;
13590;SDS011;6866;50.778;7.206;2023-07-16T09:47:59;6.38;;;2.95;;
13590;SDS011;6866;50.778;7.206;2023-07-16T09:50:27;8.98;;;3.03;;
13590;SDS011;6866;50.778;7.206;2023-07-16T09:52:55;4.72;;;2.47;;
13590;SDS011;6866;50.778;7.206;2023-07-16T09:55:21;5.60;;;2.90;;
13590;SDS011;6866;50.778;7.206;2023-07-16T09:57:47;6.03;;;3.05;;
13590;SDS011;6866;50.778;7.206;2023-07-16T10:00:15;6.55;;;3.00;;
13590;SDS011;6866;50.778;7.206;2023-07-16T10:02:42;6.88;;;2.72;;
13590;SDS011;6866;50.778;7.206;2023-07-16T10:07:38;10.40;;;3.20;;
13590;SDS011;6866;50.778;7.206;2023-07-16T10:10:08;5.47;;;3.03;;
13590;SDS011;6866;50.778;7.206;2023-07-16T10:12:35;5.32;;;3.03;;
13590;SDS011;6866;50.778;7.206;2023-07-16T10:15:01;6.82;;;3.58;;
13590;SDS011;6866;50.778;7.206;2023-07-16T10:17:29;4.35;;;2.72;;
13590;SDS011;6866;50.778;7.206;2023-07-16T10:22:38;11.30;;;4.03;;
13590;SDS011;6866;50.778;7.206;2023-07-16T10:25:25;8.13;;;3.55;;
13590;SDS011;6866;50.778;7.206;2023-07-16T10:27:52;7.60;;;3.20;;
13590;SDS011;6866;50.778;7.206;2023-07-16T10:30:19;6.65;;;3.17;;
13590;SDS011;6866;50.778;7.206;2023-07-16T10:32:45;6.13;;;3.03;;
13590;SDS011;6866;50.778;7.206;2023-07-16T10:35:11;5.85;;;2.90;;
13590;SDS011;6866;50.778;7.206;2023-07-16T10:37:37;6.55;;;3.20;;
13590;SDS011;6866;50.778;7.206;2023-07-16T10:40:04;8.45;;;3.10;;
13590;SDS011;6866;50.778;7.206;2023-07-16T10:45:01;5.25;;;2.70;;
13590;SDS011;6866;50.778;7.206;2023-07-16T10:47:35;7.53;;;2.80;;
13590;SDS011;6866;50.778;7.206;2023-07-16T10:50:05;6.43;;;2.90;;
13590;SDS011;6866;50.778;7.206;2023-07-16T10:52:32;6.70;;;3.20;;
13590;SDS011;6866;50.778;7.206;2023-07-16T10:54:58;5.88;;;3.00;;
13590;SDS011;6866;50.778;7.206;2023-07-16T10:57:24;7.68;;;3.50;;
13590;SDS011;6866;50.778;7.206;2023-07-16T10:59:51;5.55;;;2.80;;
13590;SDS011;6866;50.778;7.206;2023-07-16T11:02:18;4.60;;;2.70;;
13590;SDS011;6866;50.778;7.206;2023-07-16T11:04:44;6.40;;;2.80;;
13590;SDS011;6866;50.778;7.206;2023-07-16T11:07:11;7.05;;;2.90;;
13590;SDS011;6866;50.778;7.206;2023-07-16T11:09:41;5.95;;;2.80;;
13590;SDS011;6866;50.778;7.206;2023-07-16T11:12:09;6.53;;;2.70;;
13590;SDS011;6866;50.778;7.206;2023-07-16T11:14:35;6.28;;;2.72;;
13590;SDS011;6866;50.778;7.206;2023-07-16T11:17:08;5.88;;;2.90;;
13590;SDS011;6866;50.778;7.206;2023-07-16T11:19:34;6.43;;;3.03;;
13590;SDS011;6866;50.778;7.206;2023-07-16T11:22:01;8.32;;;3.03;;
13590;SDS011;6866;50.778;7.206;2023-07-16T11:24:27;7.18;;;2.90;;
13590;SDS011;6866;50.778;7.206;2023-07-16T11:26:54;7.93;;;2.90;;
13590;SDS011;6866;50.778;7.206;2023-07-16T11:29:22;6.45;;;2.92;;
13590;SDS011;6866;50.778;7.206;2023-07-16T11:31:51;6.93;;;2.88;;
13590;SDS011;6866;50.778;7.206;2023-07-16T11:34:20;7.25;;;2.97;;
13590;SDS011;6866;50.778;7.206;2023-07-16T11:36:49;7.40;;;2.75;;
13590;SDS011;6866;50.778;7.206;2023-07-16T11:39:15;7.68;;;3.13;;
13590;SDS011;6866;50.778;7.206;2023-07-16T11:41:40;7.60;;;3.00;;
13590;SDS011;6866;50.778;7.206;2023-07-16T11:44:10;9.07;;;2.70;;
13590;SDS011;6866;50.778;7.206;2023-07-16T11:46:36;6.25;;;3.25;;
13590;SDS011;6866;50.778;7.206;2023-07-16T11:49:01;7.80;;;3.22;;
13590;SDS011;6866;50.778;7.206;2023-07-16T11:51:27;7.15;;;3.38;;
13590;SDS011;6866;50.778;7.206;2023-07-16T11:53:53;6.75;;;2.95;;
13590;SDS011;6866;50.778;7.206;2023-07-16T11:56:20;5.95;;;2.97;;
13590;SDS011;6866;50.778;7.206;2023-07-16T11:58:46;7.47;;;3.00;;
13590;SDS011;6866;50.778;7.206;2023-07-16T12:01:12;6.50;;;3.20;;
13590;SDS011;6866;50.778;7.206;2023-07-16T12:03:39;7.85;;;3.10;;
13590;SDS011;6866;50.778;7.206;2023-07-16T12:06:05;7.27;;;2.87;;
13590;SDS011;6866;50.778;7.206;2023-07-16T12:08:30;8.32;;;3.20;;
13590;SDS011;6866;50.778;7.206;2023-07-16T12:10:56;6.32;;;2.60;;
13590;SDS011;6866;50.778;7.206;2023-07-16T12:13:21;4.82;;;2.78;;
13590;SDS011;6866;50.778;7.206;2023-07-16T12:15:47;5.50;;;2.90;;
13590;SDS011;6866;50.778;7.206;2023-07-16T12:18:12;5.85;;;2.95;;
13590;SDS011;6866;50.778;7.206;2023-07-16T12:20:38;8.07;;;2.72;;
13590;SDS011;6866;50.778;7.206;2023-07-16T12:23:04;7.00;;;2.85;;
13590;SDS011;6866;50.778;7.206;2023-07-16T12:25:30;6.47;;;2.95;;
13590;SDS011;6866;50.778;7.206;2023-07-16T12:27:56;5.32;;;2.70;;
13590;SDS011;6866;50.778;7.206;2023-07-16T12:30:22;7.53;;;3.15;;
13590;SDS011;6866;50.778;7.206;2023-07-16T12:32:48;8.02;;;3.35;;
13590;SDS011;6866;50.778;7.206;2023-07-16T12:35:14;7.63;;;2.75;;
13590;SDS011;6866;50.778;7.206;2023-07-16T12:37:41;5.60;;;2.63;;
13590;SDS011;6866;50.778;7.206;2023-07-16T12:40:06;7.25;;;3.22;;
13590;SDS011;6866;50.778;7.206;2023-07-16T12:42:33;6.63;;;2.90;;
13590;SDS011;6866;50.778;7.206;2023-07-16T12:44:59;6.47;;;2.65;;
13590;SDS011;6866;50.778;7.206;2023-07-16T12:47:25;7.00;;;2.55;;
13590;SDS011;6866;50.778;7.206;2023-07-16T12:49:51;13.57;;;9.43;;
13590;SDS011;6866;50.778;7.206;2023-07-16T12:52:16;6.82;;;3.78;;
13590;SDS011;6866;50.778;7.206;2023-07-16T12:54:42;6.03;;;2.70;;
13590;SDS011;6866;50.778;7.206;2023-07-16T12:57:07;5.50;;;2.70;;
13590;SDS011;6866;50.778;7.206;2023-07-16T12:59:33;5.93;;;2.90;;
13590;SDS011;6866;50.778;7.206;2023-07-16T13:01:58;6.40;;;2.40;;
13590;SDS011;6866;50.778;7.206;2023-07-16T13:04:24;7.07;;;2.70;;
13590;SDS011;6866;50.778;7.206;2023-07-16T13:06:49;6.23;;;2.90;;
13590;SDS011;6866;50.778;7.206;2023-07-16T13:09:15;6.63;;;2.45;;
13590;SDS011;6866;50.778;7.206;2023-07-16T13:11:41;7.60;;;2.60;;
13590;SDS011;6866;50.778;7.206;2023-07-16T13:14:07;5.13;;;2.60;;
13590;SDS011;6866;50.778;7.206;2023-07-16T13:16:33;5.38;;;2.60;;
13590;SDS011;6866;50.778;7.206;2023-07-16T13:18:58;5.18;;;2.60;;
13590;SDS011;6866;50.778;7.206;2023-07-16T13:21:24;6.57;;;2.90;;
13590;SDS011;6866;50.778;7.206;2023-07-16T13:23:49;5.43;;;2.45;;
13590;SDS011;6866;50.778;7.206;2023-07-16T13:26:15;5.43;;;2.50;;
13590;SDS011;6866;50.778;7.206;2023-07-16T13:28:40;5.35;;;2.53;;
13590;SDS011;6866;50.778;7.206;2023-07-16T13:31:06;6.68;;;2.55;;
13590;SDS011;6866;50.778;7.206;2023-07-16T13:33:31;6.85;;;2.60;;
13590;SDS011;6866;50.778;7.206;2023-07-16T13:35:57;6.30;;;2.60;;
13590;SDS011;6866;50.778;7.206;2023-07-16T13:38:26;4.63;;;2.33;;
13590;SDS011;6866;50.778;7.206;2023-07-16T13:40:51;5.65;;;2.20;;
13590;SDS011;6866;50.778;7.206;2023-07-16T13:43:17;5.22;;;2.53;;
13590;SDS011;6866;50.778;7.206;2023-07-16T13:45:42;6.35;;;2.70;;
13590;SDS011;6866;50.778;7.206;2023-07-16T13:48:08;5.30;;;2.70;;
13590;SDS011;6866;50.778;7.206;2023-07-16T13:50:33;6.05;;;2.50;;
13590;SDS011;6866;50.778;7.206;2023-07-16T13:52:59;6.85;;;2.35;;
13590;SDS011;6866;50.778;7.206;2023-07-16T13:55:26;7.47;;;2.90;;
13590;SDS011;6866;50.778;7.206;2023-07-16T13:57:53;5.30;;;2.40;;
13590;SDS011;6866;50.778;7.206;2023-07-16T14:00:20;5.30;;;2.60;;
13590;SDS011;6866;50.778;7.206;2023-07-16T14:02:46;5.18;;;2.78;;
13590;SDS011;6866;50.778;7.206;2023-07-16T14:05:11;7.15;;;2.90;;
13590;SDS011;6866;50.778;7.206;2023-07-16T14:07:37;6.85;;;2.92;;
13590;SDS011;6866;50.778;7.206;2023-07-16T14:10:02;6.00;;;2.88;;
13590;SDS011;6866;50.778;7.206;2023-07-16T14:12:28;5.25;;;2.67;;
13590;SDS011;6866;50.778;7.206;2023-07-16T14:14:54;6.55;;;2.80;;
13590;SDS011;6866;50.778;7.206;2023-07-16T14:17:19;5.72;;;2.80;;
13590;SDS011;6866;50.778;7.206;2023-07-16T14:19:45;5.20;;;2.90;;
13590;SDS011;6866;50.778;7.206;2023-07-16T14:22:11;5.32;;;2.53;;
13590;SDS011;6866;50.778;7.206;2023-07-16T14:24:38;5.47;;;2.58;;
13590;SDS011;6866;50.778;7.206;2023-07-16T14:27:05;7.30;;;3.00;;
13590;SDS011;6866;50.778;7.206;2023-07-16T14:29:31;5.93;;;2.83;;
13590;SDS011;6866;50.778;7.206;2023-07-16T14:31:58;6.78;;;3.10;;
13590;SDS011;6866;50.778;7.206;2023-07-16T14:34:25;6.60;;;2.90;;
13590;SDS011;6866;50.778;7.206;2023-07-16T14:36:51;9.07;;;3.03;;
13590;SDS011;6866;50.778;7.206;2023-07-16T14:39:17;8.23;;;3.42;;
13590;SDS011;6866;50.778;7.206;2023-07-16T14:41:42;5.53;;;2.90;;
13590;SDS011;6866;50.778;7.206;2023-07-16T14:44:08;5.50;;;2.35;;
13590;SDS011;6866;50.778;7.206;2023-07-16T14:46:34;6.35;;;2.50;;
13590;SDS011;6866;50.778;7.206;2023-07-16T14:49:00;5.97;;;2.67;;
13590;SDS011;6866;50.778;7.206;2023-07-16T14:51:26;6.78;;;2.80;;
13590;SDS011;6866;50.778;7.206;2023-07-16T14:53:52;5.57;;;2.67;;
13590;SDS011;6866;50.778;7.206;2023-07-16T14:56:18;5.53;;;2.60;;
13590;SDS011;6866;50.778;7.206;2023-07-16T14:58:44;6.10;;;2.60;;
13590;SDS011;6866;50.778;7.206;2023-07-16T15:03:35;7.30;;;2.47;;
13590;SDS011;6866;50.778;7.206;2023-07-16T15:06:02;5.97;;;2.28;;
13590;SDS011;6866;50.778;7.206;2023-07-16T15:08:28;6.97;;;2.70;;
13590;SDS011;6866;50.778;7.206;2023-07-16T15:10:59;5.80;;;2.55;;
13590;SDS011;6866;50.778;7.206;2023-07-16T15:13:25;4.78;;;2.63;;
13590;SDS011;6866;50.778;7.206;2023-07-16T15:15:52;5.63;;;2.33;;
13590;SDS011;6866;50.778;7.206;2023-07-16T15:18:19;5.20;;;2.42;;
13590;SDS011;6866;50.778;7.206;2023-07-16T15:20:45;7.28;;;2.75;;
13590;SDS011;6866;50.778;7.206;2023-07-16T15:23:12;5.38;;;2.55;;
13590;SDS011;6866;50.778;7.206;2023-07-16T15:25:40;6.75;;;2.60;;
13590;SDS011;6866;50.778;7.206;2023-07-16T15:28:07;7.53;;;3.20;;
13590;SDS011;6866;50.778;7.206;2023-07-16T15:30:33;4.85;;;2.55;;
13590;SDS011;6866;50.778;7.206;2023-07-16T15:32:58;6.60;;;2.30;;
13590;SDS011;6866;50.778;7.206;2023-07-16T15:35:24;4.40;;;2.25;;
13590;SDS011;6866;50.778;7.206;2023-07-16T15:37:49;10.40;;;3.13;;
13590;SDS011;6866;50.778;7.206;2023-07-16T15:40:15;7.18;;;2.60;;
13590;SDS011;6866;50.778;7.206;2023-07-16T15:42:41;9.02;;;2.90;;
13590;SDS011;6866;50.778;7.206;2023-07-16T15:45:10;5.80;;;2.40;;
13590;SDS011;6866;50.778;7.206;2023-07-16T15:47:41;4.82;;;2.45;;
13590;SDS011;6866;50.778;7.206;2023-07-16T15:50:08;8.00;;;2.75;;
13590;SDS011;6866;50.778;7.206;2023-07-16T15:52:34;5.22;;;2.42;;
13590;SDS011;6866;50.778;7.206;2023-07-16T15:54:59;5.28;;;2.60;;
13590;SDS011;6866;50.778;7.206;2023-07-16T15:57:25;7.63;;;3.00;;
13590;SDS011;6866;50.778;7.206;2023-07-16T15:59:51;8.30;;;3.38;;
13590;SDS011;6866;50.778;7.206;2023-07-16T16:02:16;6.75;;;3.30;;
13590;SDS011;6866;50.778;7.206;2023-07-16T16:04:42;8.30;;;3.63;;
13590;SDS011;6866;50.778;7.206;2023-07-16T16:07:07;5.13;;;2.67;;
13590;SDS011;6866;50.778;7.206;2023-07-16T16:09:33;7.28;;;2.97;;
13590;SDS011;6866;50.778;7.206;2023-07-16T16:11:58;6.82;;;2.92;;
13590;SDS011;6866;50.778;7.206;2023-07-16T16:14:25;6.22;;;2.58;;
13590;SDS011;6866;50.778;7.206;2023-07-16T16:16:50;7.20;;;3.03;;
13590;SDS011;6866;50.778;7.206;2023-07-16T16:19:18;6.37;;;3.00;;
13590;SDS011;6866;50.778;7.206;2023-07-16T16:21:44;6.15;;;2.75;;
13590;SDS011;6866;50.778;7.206;2023-07-16T16:24:09;7.35;;;3.28;;
13590;SDS011;6866;50.778;7.206;2023-07-16T16:26:35;5.72;;;2.97;;
13590;SDS011;6866;50.778;7.206;2023-07-16T16:29:01;6.55;;;3.08;;
13590;SDS011;6866;50.778;7.206;2023-07-16T16:31:26;7.40;;;3.15;;
13590;SDS011;6866;50.778;7.206;2023-07-16T16:33:52;5.75;;;2.65;;
13590;SDS011;6866;50.778;7.206;2023-07-16T16:36:17;6.88;;;3.03;;
13590;SDS011;6866;50.778;7.206;2023-07-16T16:38:43;8.48;;;3.03;;
13590;SDS011;6866;50.778;7.206;2023-07-16T16:41:08;6.50;;;2.83;;
13590;SDS011;6866;50.778;7.206;2023-07-16T16:43:34;6.05;;;3.00;;
13590;SDS011;6866;50.778;7.206;2023-07-16T16:46:00;6.05;;;2.88;;
13590;SDS011;6866;50.778;7.206;2023-07-16T16:48:27;6.65;;;2.78;;
13590;SDS011;6866;50.778;7.206;2023-07-16T16:50:55;5.47;;;2.90;;
13590;SDS011;6866;50.778;7.206;2023-07-16T16:53:21;5.40;;;2.80;;
13590;SDS011;6866;50.778;7.206;2023-07-16T16:55:47;5.25;;;2.47;;
13590;SDS011;6866;50.778;7.206;2023-07-16T16:58:12;5.15;;;2.67;;
13590;SDS011;6866;50.778;7.206;2023-07-16T17:00:38;7.40;;;3.15;;
13590;SDS011;6866;50.778;7.206;2023-07-16T17:03:03;5.72;;;2.78;;
13590;SDS011;6866;50.778;7.206;2023-07-16T17:05:29;9.65;;;2.90;;
13590;SDS011;6866;50.778;7.206;2023-07-16T17:07:55;8.65;;;3.05;;
13590;SDS011;6866;50.778;7.206;2023-07-16T17:10:22;6.03;;;2.80;;
13590;SDS011;6866;50.778;7.206;2023-07-16T17:12:48;8.43;;;3.30;;
13590;SDS011;6866;50.778;7.206;2023-07-16T17:15:14;7.10;;;3.10;;
13590;SDS011;6866;50.778;7.206;2023-07-16T17:17:39;12.32;;;3.35;;
13590;SDS011;6866;50.778;7.206;2023-07-16T17:20:05;8.27;;;3.10;;
13590;SDS011;6866;50.778;7.206;2023-07-16T17:22:34;6.07;;;3.00;;
13590;SDS011;6866;50.778;7.206;2023-07-16T17:25:04;7.60;;;3.20;;
13590;SDS011;6866;50.778;7.206;2023-07-16T17:27:33;6.97;;;3.30;;
13590;SDS011;6866;50.778;7.206;2023-07-16T17:30:00;7.75;;;3.10;;
13590;SDS011;6866;50.778;7.206;2023-07-16T17:32:26;7.88;;;3.30;;
13590;SDS011;6866;50.778;7.206;2023-07-16T17:34:51;6.45;;;2.78;;
13590;SDS011;6866;50.778;7.206;2023-07-16T17:37:17;7.35;;;2.92;;
13590;SDS011;6866;50.778;7.206;2023-07-16T17:39:43;8.50;;;3.22;;
13590;SDS011;6866;50.778;7.206;2023-07-16T17:42:09;5.15;;;2.88;;
13590;SDS011;6866;50.778;7.206;2023-07-16T17:44:36;5.47;;;2.95;;
13590;SDS011;6866;50.778;7.206;2023-07-16T17:47:01;5.65;;;2.80;;
13590;SDS011;6866;50.778;7.206;2023-07-16T17:49:27;8.10;;;3.13;;
13590;SDS011;6866;50.778;7.206;2023-07-16T17:51:54;8.23;;;3.03;;
13590;SDS011;6866;50.778;7.206;2023-07-16T17:54:20;9.50;;;3.55;;
13590;SDS011;6866;50.778;7.206;2023-07-16T17:56:47;7.55;;;2.95;;
13590;SDS011;6866;50.778;7.206;2023-07-16T17:59:13;10.23;;;3.20;;
13590;SDS011;6866;50.778;7.206;2023-07-16T18:01:38;6.72;;;2.75;;
13590;SDS011;6866;50.778;7.206;2023-07-16T18:04:04;6.45;;;2.88;;
13590;SDS011;6866;50.778;7.206;2023-07-16T18:06:30;6.30;;;2.80;;
13590;SDS011;6866;50.778;7.206;2023-07-16T18:08:55;7.50;;;2.83;;
13590;SDS011;6866;50.778;7.206;2023-07-16T18:11:21;7.43;;;2.72;;
13590;SDS011;6866;50.778;7.206;2023-07-16T18:13:47;7.53;;;3.22;;
13590;SDS011;6866;50.778;7.206;2023-07-16T18:16:13;8.27;;;2.85;;
13590;SDS011;6866;50.778;7.206;2023-07-16T18:18:39;7.05;;;2.97;;
13590;SDS011;6866;50.778;7.206;2023-07-16T18:21:04;8.40;;;3.25;;
13590;SDS011;6866;50.778;7.206;2023-07-16T18:23:30;5.80;;;2.85;;
13590;SDS011;6866;50.778;7.206;2023-07-16T18:25:56;6.47;;;2.92;;
13590;SDS011;6866;50.778;7.206;2023-07-16T18:28:21;6.53;;;2.97;;
13590;SDS011;6866;50.778;7.206;2023-07-16T18:30:47;7.95;;;2.92;;
13590;SDS011;6866;50.778;7.206;2023-07-16T18:33:12;7.03;;;3.00;;